Time;durP1;ratioP1;P1;durP2;ratioP2;P2;SDS_P1;SDS_P2;PMS_P1;PMS_P2;Temp;Humidity;BMP_temperature;BMP_pressure;BME280_temperature;BME280_humidity;BME280_pressure;Samples;Min_cycle;Max_cycle;Signal;HPM_P1;HPM_P2
2021/08/16 00:00:27;;;;;;;9.83;4.90;;;23.20;99.90;;;23.27;55.55;100654.56;4985515;27;99079;-53
2021/08/16 00:02:53;;;;;;;7.17;3.70;;;23.10;99.90;;;23.19;55.41;100651.72;4983038;27;98066;-54
2021/08/16 00:05:19;;;;;;;5.23;3.13;;;23.10;99.90;;;23.20;55.52;100661.50;4988044;27;98793;-54
2021/08/16 00:07:45;;;;;;;5.40;3.07;;;23.10;99.90;;;23.13;55.71;100658.47;4981796;27;98483;-56
2021/08/16 00:10:14;;;;;;;6.70;2.93;;;23.00;99.90;;;23.07;55.36;100652.78;4986594;27;99317;-56
2021/08/16 00:12:41;;;;;;;5.97;2.80;;;23.00;99.90;;;23.07;54.66;100658.19;4983578;27;97698;-53
2021/08/16 00:15:07;;;;;;;4.67;2.43;;;23.00;99.90;;;22.99;54.76;100660.69;4989225;27;99671;-53
2021/08/16 00:17:33;;;;;;;3.37;2.10;;;22.90;99.90;;;23.00;55.20;100652.50;4985593;27;100682;-54
2021/08/16 00:19:59;;;;;;;2.87;2.07;;;22.90;99.90;;;23.03;54.49;100657.59;4985193;27;99903;-56
2021/08/16 00:22:25;;;;;;;3.67;2.60;;;22.90;99.90;;;23.03;53.71;100657.59;4988540;27;98935;-52
2021/08/16 00:24:51;;;;;;;3.37;2.17;;;22.90;99.90;;;23.00;54.02;100654.31;4977363;27;102665;-57
2021/08/16 00:27:17;;;;;;;3.63;2.10;;;22.90;99.90;;;23.07;55.79;100659.03;4987553;27;99103;-54
2021/08/16 00:29:43;;;;;;;5.53;2.20;;;22.90;99.90;;;22.98;54.37;100651.75;4981038;27;101130;-55
2021/08/16 00:32:09;;;;;;;3.93;2.00;;;22.90;99.90;;;22.98;54.54;100654.44;4987794;27;98774;-52
2021/08/16 00:34:36;;;;;;;4.27;2.40;;;22.90;99.90;;;22.99;55.69;100649.91;4980515;27;99535;-54
2021/08/16 00:37:02;;;;;;;4.37;2.73;;;22.80;99.90;;;23.02;54.58;100649.66;4988743;27;97425;-53
2021/08/16 00:39:28;;;;;;;4.93;2.50;;;22.90;99.90;;;23.01;55.04;100647.97;4989469;27;99452;-55
2021/08/16 00:41:54;;;;;;;4.83;2.90;;;22.90;99.90;;;23.01;54.51;100664.09;4979643;27;97912;-55
2021/08/16 00:44:20;;;;;;;3.90;2.67;;;22.90;99.90;;;22.93;54.89;100661.22;4992018;27;100159;-55
2021/08/16 00:46:46;;;;;;;8.30;2.63;;;22.80;99.90;;;22.98;55.02;100667.03;4971367;27;113619;-53
2021/08/16 00:49:14;;;;;;;6.03;2.40;;;22.80;99.90;;;22.89;54.40;100674.09;5010529;27;100114;-57
2021/08/16 00:51:40;;;;;;;3.80;2.30;;;22.70;99.90;;;22.90;55.32;100667.72;4986191;27;98685;-55
2021/08/16 00:54:08;;;;;;;4.80;2.33;;;22.80;99.90;;;22.84;55.53;100669.09;5007657;27;99123;-52
2021/08/16 00:56:37;;;;;;;4.37;2.20;;;22.70;99.90;;;22.85;55.00;100670.78;4985562;27;98373;-55
2021/08/16 00:59:06;;;;;;;4.70;2.03;;;22.70;99.90;;;22.87;55.80;100678.75;4993220;27;98506;-57
2021/08/16 01:01:32;;;;;;;5.07;2.10;;;22.70;99.90;;;22.87;54.93;100681.44;5002016;27;99796;-51
2021/08/16 01:03:59;;;;;;;3.67;2.00;;;22.70;99.90;;;22.88;55.58;100685.84;5009743;27;97959;-58
2021/08/16 01:06:24;;;;;;;5.93;2.63;;;22.70;99.90;;;22.86;54.28;100682.44;4990224;27;100888;-52
2021/08/16 01:08:51;;;;;;;3.40;2.40;;;22.60;99.90;;;22.87;55.76;100684.13;4986417;27;99527;-49
2021/08/16 01:11:18;;;;;;;8.47;2.70;;;22.70;99.90;;;22.87;55.05;100684.13;4994005;27;102031;-49
2021/08/16 01:13:46;;;;;;;5.00;2.30;;;22.60;99.90;;;22.85;55.53;100686.06;4986628;27;100295;-52
2021/08/16 01:16:15;;;;;;;5.43;1.83;;;22.60;99.90;;;22.84;55.51;100689.75;4993589;27;99489;-52
2021/08/16 01:18:41;;;;;;;5.27;2.30;;;22.60;99.90;;;22.80;51.82;100686.44;5000742;27;99460;-55
2021/08/16 01:21:11;;;;;;;7.10;2.43;;;22.50;99.90;;;22.75;54.27;100691.38;4994086;27;98710;-51
2021/08/16 01:23:40;;;;;;;5.40;2.70;;;22.50;99.90;;;22.69;55.64;100686.53;4979821;27;97950;-56
2021/08/16 01:26:07;;;;;;;6.83;2.07;;;22.30;99.90;;;22.55;50.47;100689.53;5012483;27;98099;-58
2021/08/16 01:28:33;;;;;;;6.97;2.30;;;22.20;99.90;;;22.27;50.60;100685.63;4968457;27;97504;-53
2021/08/16 01:31:04;;;;;;;6.93;2.40;;;21.90;99.90;;;22.24;51.04;100692.13;4988777;27;100644;-51
2021/08/16 01:33:30;;;;;;;5.10;2.43;;;21.80;99.90;;;22.29;52.76;100688.22;5000947;27;99782;-49
2021/08/16 01:35:56;;;;;;;4.83;2.57;;;21.90;99.90;;;22.25;56.65;100683.09;4988101;27;105423;-52
2021/08/16 01:38:28;;;;;;;5.43;2.50;;;21.80;99.90;;;22.17;54.00;100684.72;4989138;27;98919;-58
2021/08/16 01:40:54;;;;;;;6.77;2.60;;;21.70;99.90;;;22.16;54.93;100683.88;4983142;27;97447;-51
2021/08/16 01:43:20;;;;;;;5.77;2.50;;;21.70;99.90;;;22.17;56.34;100674.84;4987999;27;100114;-54
2021/08/16 01:45:46;;;;;;;7.03;2.43;;;21.70;99.90;;;22.18;57.35;100678.38;4984278;27;97567;-53
2021/08/16 01:48:14;;;;;;;5.23;2.20;;;21.70;99.90;;;22.22;56.95;100677.97;4993059;27;97882;-57
2021/08/16 01:50:41;;;;;;;6.43;2.50;;;21.80;99.90;;;22.24;57.27;100678.69;4987825;27;100406;-58
2021/08/16 01:53:07;;;;;;;6.37;2.33;;;21.90;99.90;;;22.23;56.56;100678.84;4990687;27;100981;-54
2021/08/16 01:55:34;;;;;;;5.37;2.17;;;21.90;99.90;;;22.29;56.90;100682.84;4985720;27;99013;-52
2021/08/16 01:58:00;;;;;;;4.53;1.97;;;21.90;99.90;;;22.30;56.88;100685.41;5009693;27;97640;-58
2021/08/16 02:00:26;;;;;;;4.07;2.33;;;21.90;99.90;;;22.32;56.82;100683.44;4990615;27;100285;-57
2021/08/16 02:02:52;;;;;;;5.67;2.00;;;22.00;99.90;;;22.37;56.71;100685.72;5000636;27;99859;-54
2021/08/16 02:05:18;;;;;;;6.00;2.17;;;22.00;99.90;;;22.35;55.98;100682.31;4989791;27;98898;-53
2021/08/16 02:07:44;;;;;;;6.20;1.80;;;22.00;99.90;;;22.36;56.52;100684.03;4984004;27;98730;-56
2021/08/16 02:10:10;;;;;;;5.90;2.33;;;22.00;99.90;;;22.37;54.96;100674.97;5001765;27;101145;-55
2021/08/16 02:12:36;;;;;;;4.67;2.10;;;22.10;99.90;;;22.37;52.94;100674.97;4985549;27;99118;-51
2021/08/16 02:15:06;;;;;;;8.40;1.97;;;22.10;99.90;;;22.39;55.84;100678.38;5007913;27;97985;-54
2021/08/16 02:17:32;;;;;;;7.20;2.23;;;22.10;99.90;;;22.41;56.41;100681.78;4984235;27;97078;-57
2021/08/16 02:19:57;;;;;;;5.93;2.10;;;22.10;99.90;;;22.41;56.19;100673.72;4990479;27;97872;-52
2021/08/16 02:22:23;;;;;;;6.00;2.00;;;22.10;99.90;;;22.34;51.27;100675.25;5005114;27;103363;-54
2021/08/16 02:24:49;;;;;;;4.30;1.67;;;22.00;99.90;;;22.36;56.28;100673.28;5010052;27;97890;-53
2021/08/16 02:27:15;;;;;;;5.60;2.17;;;22.00;99.90;;;22.37;55.99;100672.28;5006455;27;97241;-51
2021/08/16 02:29:40;;;;;;;5.83;2.50;;;22.10;99.90;;;22.38;56.01;100672.16;5005645;27;98041;-52
2021/08/16 02:32:07;;;;;;;6.97;2.03;;;22.10;99.90;;;22.42;55.95;100678.13;5000922;27;99442;-53
2021/08/16 02:34:33;;;;;;;6.67;2.70;;;22.20;99.90;;;22.44;55.97;100670.81;5003694;27;98746;-53
2021/08/16 02:36:58;;;;;;;5.53;2.07;;;22.20;99.90;;;22.45;54.30;100667.13;5008069;27;97545;-54
2021/08/16 02:39:24;;;;;;;8.20;2.30;;;22.20;99.90;;;22.43;54.59;100671.78;5009131;27;97447;-54
2021/08/16 02:41:50;;;;;;;5.87;1.90;;;22.10;99.90;;;22.40;53.09;100672.03;4999677;27;99397;-49
2021/08/16 02:44:16;;;;;;;6.80;2.30;;;22.10;99.90;;;22.39;54.82;100667.63;5008260;27;99088;-51
2021/08/16 02:46:42;;;;;;;6.33;2.53;;;22.00;99.90;;;22.36;54.94;100674.13;5023696;27;97618;-51
2021/08/16 02:49:08;;;;;;;6.63;2.17;;;22.10;99.90;;;22.35;55.27;100671.56;5008738;27;97857;-52
2021/08/16 02:51:33;;;;;;;3.47;1.97;;;22.00;99.90;;;22.35;54.72;100671.56;5005129;27;97396;-56
2021/08/16 02:53:59;;;;;;;4.70;1.90;;;22.00;99.90;;;22.31;52.77;100671.00;5004748;27;97700;-53
2021/08/16 02:56:26;;;;;;;4.90;1.87;;;22.00;99.90;;;22.31;56.10;100668.31;5007301;27;97281;-51
2021/08/16 02:58:52;;;;;;;7.70;2.03;;;22.00;99.90;;;22.31;54.90;100664.75;5004352;27;97613;-54
2021/08/16 03:01:18;;;;;;;5.67;1.93;;;22.00;99.90;;;22.22;51.75;100661.84;5022639;27;105127;-55
2021/08/16 03:03:44;;;;;;;6.77;2.10;;;21.90;99.60;;;22.25;56.11;100660.75;5001145;27;99778;-53
2021/08/16 03:06:10;;;;;;;3.53;1.67;;;21.90;99.90;;;22.25;54.90;100660.75;4992925;27;97605;-54
2021/08/16 03:08:37;;;;;;;6.77;2.33;;;21.90;99.90;;;22.19;53.27;100651.38;5009320;27;98147;-54
2021/08/16 03:11:07;;;;;;;5.30;2.30;;;21.80;99.90;;;22.20;56.00;100658.44;4993563;27;97006;-56
2021/08/16 03:13:33;;;;;;;6.30;2.57;;;21.80;99.90;;;22.21;55.10;100653.94;5009071;27;97316;-52
2021/08/16 03:16:00;;;;;;;5.23;2.07;;;21.80;99.90;;;22.18;56.32;100638.94;5011431;27;99119;-56
2021/08/16 03:18:26;;;;;;;6.80;2.37;;;21.90;99.90;;;22.23;56.03;100647.44;5014288;27;98947;-52
2021/08/16 03:20:52;;;;;;;6.57;2.57;;;21.90;99.90;;;22.19;53.43;100648.69;5003236;27;100830;-55
2021/08/16 03:23:20;;;;;;;5.67;2.03;;;21.90;99.70;;;22.19;56.24;100645.16;5010512;27;99139;-54
2021/08/16 03:25:46;;;;;;;9.23;2.50;;;21.80;99.90;;;22.19;55.66;100645.16;5002531;27;98913;-54
2021/08/16 03:28:12;;;;;;;5.20;2.20;;;21.80;99.90;;;22.19;55.96;100640.63;5006522;27;97375;-52
2021/08/16 03:30:38;;;;;;;4.27;1.83;;;21.90;99.90;;;22.16;56.23;100634.69;5011067;27;98950;-51
2021/08/16 03:33:05;;;;;;;7.07;2.27;;;21.80;99.90;;;22.20;55.15;100630.75;5009569;27;99772;-54
2021/08/16 03:35:31;;;;;;;5.87;2.40;;;21.90;99.90;;;22.20;54.71;100634.28;5025315;27;97364;-58
2021/08/16 03:37:56;;;;;;;4.60;1.97;;;21.90;99.90;;;22.17;50.75;100631.84;5004093;27;97144;-54
2021/08/16 03:40:22;;;;;;;3.73;1.97;;;21.80;99.90;;;22.17;54.84;100631.00;5013343;27;97452;-53
2021/08/16 03:42:48;;;;;;;6.83;2.50;;;21.80;99.90;;;22.11;52.26;100629.66;5005939;27;97324;-57
2021/08/16 03:45:19;;;;;;;3.90;1.80;;;21.70;99.90;;;22.11;53.52;100626.97;5007191;27;98012;-51
2021/08/16 03:47:46;;;;;;;7.97;2.47;;;21.70;99.90;;;22.11;54.95;100637.72;4999431;27;98998;-53
2021/08/16 03:50:13;;;;;;;5.87;2.13;;;21.70;99.90;;;22.11;54.75;100632.34;5024970;27;97597;-51
2021/08/16 03:52:38;;;;;;;4.63;2.03;;;21.70;99.90;;;22.09;54.11;100631.63;5024977;27;99957;-51
2021/08/16 03:55:05;;;;;;;5.97;2.20;;;21.70;99.90;;;22.06;56.27;100631.91;5006983;27;97375;-51
2021/08/16 03:57:31;;;;;;;5.03;2.63;;;21.70;99.90;;;22.00;53.69;100629.72;5009201;27;99090;-57
2021/08/16 03:59:57;;;;;;;7.50;2.50;;;21.60;99.90;;;22.06;55.86;100633.72;5027284;27;106072;-51
2021/08/16 04:02:23;;;;;;;6.43;2.07;;;21.60;99.90;;;22.07;56.03;100635.44;5023419;27;99581;-57
2021/08/16 04:04:49;;;;;;;5.90;2.20;;;21.70;99.90;;;22.06;54.71;100633.72;5006746;27;97564;-55
2021/08/16 04:07:15;;;;;;;5.20;1.80;;;21.70;99.90;;;22.05;51.89;100626.63;5009262;27;97674;-49
2021/08/16 04:09:41;;;;;;;9.80;2.43;;;21.80;99.90;;;22.05;51.06;100632.88;4999913;27;98342;-49
2021/08/16 04:12:08;;;;;;;5.40;1.93;;;21.80;99.90;;;21.98;50.95;100628.97;5025779;27;98250;-47
2021/08/16 04:14:33;;;;;;;6.20;2.07;;;21.70;99.90;;;22.06;55.90;100634.59;5005474;27;98495;-53
2021/08/16 04:16:59;;;;;;;8.27;2.40;;;21.70;99.90;;;22.01;50.72;100631.41;5012058;27;99153;-55
2021/08/16 04:19:25;;;;;;;6.90;1.90;;;21.70;99.90;;;22.03;53.41;100626.75;5007466;27;97966;-49
2021/08/16 04:21:51;;;;;;;4.07;1.70;;;21.70;99.90;;;21.96;53.41;100628.25;5008133;27;99076;-56
2021/08/16 04:24:17;;;;;;;4.77;2.17;;;21.60;99.90;;;22.01;56.44;100625.19;5012011;27;100915;-50
2021/08/16 04:26:43;;;;;;;5.33;2.00;;;21.60;99.90;;;22.04;56.45;100631.16;5006507;27;97533;-56
2021/08/16 04:29:09;;;;;;;7.10;2.57;;;21.70;99.90;;;22.08;55.01;100627.25;5005478;27;97631;-54
2021/08/16 04:31:35;;;;;;;8.17;2.33;;;21.70;99.90;;;22.05;51.17;100626.63;5006803;27;99846;-54
2021/08/16 04:34:01;;;;;;;6.03;2.23;;;21.70;99.90;;;21.99;50.87;100633.38;5007800;27;98185;-50
2021/08/16 04:36:27;;;;;;;5.43;2.10;;;21.70;99.90;;;22.05;55.19;100627.50;5005020;27;97611;-49
2021/08/16 04:38:53;;;;;;;6.23;2.13;;;21.70;99.90;;;22.03;55.13;100634.81;5012211;27;97950;-51
2021/08/16 04:41:19;;;;;;;3.73;1.80;;;21.70;99.90;;;22.09;55.69;100633.47;5014040;27;97130;-49
2021/08/16 04:43:45;;;;;;;7.30;2.23;;;21.80;99.90;;;22.07;54.80;100625.53;5023835;27;98177;-53
2021/08/16 04:46:11;;;;;;;8.03;2.50;;;21.70;99.90;;;22.02;55.09;100622.38;5014273;27;97087;-55
2021/08/16 04:48:37;;;;;;;4.30;2.20;;;21.70;99.90;;;22.06;55.83;100633.72;5007164;27;100294;-50
2021/08/16 04:51:02;;;;;;;8.60;2.60;;;21.70;99.90;;;21.99;55.60;100622.63;5009475;28;97971;-54
2021/08/16 04:53:28;;;;;;;6.47;2.20;;;21.60;99.90;;;22.03;56.04;100624.06;5012860;27;98809;-49
2021/08/16 04:55:54;;;;;;;8.43;2.43;;;21.70;99.90;;;22.01;55.74;100625.19;5025764;27;97785;-50
2021/08/16 04:58:20;;;;;;;8.30;2.60;;;21.60;99.90;;;21.99;55.10;100630.69;5016354;27;110655;-52
2021/08/16 05:00:46;;;;;;;5.40;2.20;;;21.70;99.90;;;22.04;55.33;100635.66;5004283;27;96770;-48
2021/08/16 05:03:11;;;;;;;6.40;2.40;;;21.70;99.90;;;22.07;55.53;100636.28;5029447;27;98481;-52
2021/08/16 05:05:37;;;;;;;8.03;2.37;;;21.80;99.90;;;22.05;55.77;100640.06;5010201;27;97735;-49
2021/08/16 05:08:04;;;;;;;5.60;2.37;;;21.80;99.90;;;22.09;56.02;100638.84;5028600;27;97742;-54
2021/08/16 05:10:31;;;;;;;5.60;2.13;;;21.80;99.90;;;21.98;54.92;100642.38;5010180;27;97742;-51
2021/08/16 05:13:00;;;;;;;4.67;2.00;;;21.70;99.90;;;22.04;55.59;100633.84;5009290;27;96941;-50
2021/08/16 05:15:26;;;;;;;5.53;2.10;;;21.70;99.90;;;22.03;53.85;100631.28;5013502;28;97246;-54
2021/08/16 05:17:52;;;;;;;6.33;2.33;;;21.70;99.90;;;22.05;55.99;100643.63;5011442;27;97498;-52
2021/08/16 05:20:19;;;;;;;8.97;2.77;;;21.70;99.90;;;22.07;56.04;100652.41;5027134;27;98126;-54
2021/08/16 05:22:47;;;;;;;6.80;2.40;;;21.80;99.90;;;22.08;55.36;100647.88;5009279;27;97181;-54
2021/08/16 05:25:15;;;;;;;7.00;2.27;;;21.80;99.90;;;22.07;55.93;100641.66;5007902;27;97970;-52
2021/08/16 05:27:41;;;;;;;5.43;2.27;;;21.80;99.90;;;22.09;55.79;100645.06;5006395;27;99335;-51
2021/08/16 05:30:08;;;;;;;8.80;2.40;;;21.80;99.90;;;22.09;54.45;100655.81;5030916;27;97262;-55
2021/08/16 05:32:36;;;;;;;7.60;2.43;;;21.80;99.90;;;22.09;55.60;100655.81;5007161;27;98698;-52
2021/08/16 05:35:02;;;;;;;4.57;2.27;;;21.80;99.90;;;22.03;54.86;100653.63;5015937;27;99126;-54
2021/08/16 05:37:28;;;;;;;6.87;3.10;;;21.80;99.90;;;22.05;55.90;100653.47;5012211;27;96991;-53
2021/08/16 05:39:53;;;;;;;6.93;2.97;;;21.80;99.90;;;22.06;55.06;100650.69;4970931;27;97434;-55
2021/08/16 05:42:19;;;;;;;9.23;3.07;;;21.80;99.90;;;22.07;55.72;100647.03;4997572;27;103835;-55
2021/08/16 05:44:45;;;;;;;7.50;3.23;;;21.80;99.90;;;22.05;54.39;100651.69;5003015;27;97294;-56
2021/08/16 05:47:11;;;;;;;13.50;2.70;;;21.80;99.90;;;22.05;56.04;100643.63;5025966;27;101977;-51
2021/08/16 05:49:37;;;;;;;9.23;2.70;;;21.70;99.90;;;21.97;52.73;100652.28;5006211;27;97719;-54
2021/08/16 05:52:03;;;;;;;6.37;2.80;;;21.70;99.90;;;21.96;54.80;100655.09;5025512;27;97458;-52
2021/08/16 05:54:29;;;;;;;5.83;2.73;;;21.70;99.90;;;21.94;55.48;100649.84;5008567;27;97598;-54
2021/08/16 05:56:55;;;;;;;8.03;3.00;;;21.70;99.90;;;21.92;55.30;100659.88;5021887;27;100184;-54
2021/08/16 05:59:20;;;;;;;6.60;2.70;;;21.60;99.90;;;21.99;56.50;100654.88;5012132;27;98020;-57
2021/08/16 06:01:46;;;;;;;12.37;2.83;;;21.70;99.90;;;22.01;56.38;100658.28;4999603;27;101654;-52
2021/08/16 06:04:12;;;;;;;10.83;3.30;;;21.80;99.90;;;22.06;55.68;100652.53;5025197;27;97335;-56
2021/08/16 06:06:38;;;;;;;9.07;2.57;;;21.80;99.90;;;22.06;54.52;100656.06;5018494;27;107085;-57
2021/08/16 06:09:05;;;;;;;6.40;2.93;;;21.80;99.90;;;22.09;55.40;100645.06;5009069;27;98815;-49
2021/08/16 06:11:31;;;;;;;6.60;2.87;;;21.80;99.90;;;22.13;56.38;100646.53;5018639;27;99424;-59
2021/08/16 06:13:57;;;;;;;8.10;2.73;;;21.90;99.90;;;22.11;54.83;100653.00;5001536;27;97069;-52
2021/08/16 06:16:23;;;;;;;10.33;3.23;;;21.80;99.90;;;22.09;55.99;100655.81;5009624;27;119037;-55
2021/08/16 06:18:51;;;;;;;7.03;2.87;;;21.80;99.90;;;22.11;55.36;100653.84;5004050;27;96879;-53
2021/08/16 06:21:17;;;;;;;7.20;2.77;;;21.90;99.90;;;22.15;55.84;100655.31;5009461;27;96862;-56
2021/08/16 06:23:43;;;;;;;8.10;2.60;;;21.90;99.90;;;22.15;55.21;100655.31;5020549;27;97728;-54
2021/08/16 06:26:09;;;;;;;8.47;2.93;;;21.90;99.90;;;22.19;56.24;100655.91;5010590;27;101286;-57
2021/08/16 06:28:37;;;;;;;9.20;3.40;;;22.00;99.90;;;22.18;53.26;100655.06;5002877;27;99080;-53
2021/08/16 06:31:03;;;;;;;8.30;2.70;;;22.00;99.90;;;22.17;55.82;100656.03;5009638;27;97379;-54
2021/08/16 06:33:30;;;;;;;9.20;3.37;;;21.90;99.90;;;22.18;54.40;100659.56;5005855;27;97621;-57
2021/08/16 06:35:56;;;;;;;7.10;2.40;;;21.90;99.90;;;22.21;55.82;100654.78;4994759;28;102970;-54
2021/08/16 06:38:23;;;;;;;5.27;2.67;;;22.00;99.90;;;22.18;54.97;100651.50;5009601;27;103843;-49
2021/08/16 06:40:54;;;;;;;9.43;3.17;;;21.90;99.90;;;22.20;55.40;100658.44;5009086;27;97272;-55
2021/08/16 06:43:22;;;;;;;10.43;2.80;;;21.90;99.90;;;22.18;54.87;100660.41;5018549;27;99211;-50
2021/08/16 06:45:48;;;;;;;7.47;2.63;;;21.90;99.90;;;22.10;54.72;100657.50;5002571;27;97702;-54
2021/08/16 06:48:15;;;;;;;6.67;2.77;;;21.80;99.90;;;22.13;54.78;100657.28;5024818;27;100494;-53
2021/08/16 06:50:41;;;;;;;6.40;2.47;;;21.90;99.90;;;22.16;55.31;100651.66;5006808;27;97798;-51
2021/08/16 06:53:11;;;;;;;6.53;2.30;;;21.90;99.90;;;22.06;55.01;100645.34;5014866;27;96879;-52
2021/08/16 06:55:37;;;;;;;7.47;2.53;;;21.90;99.90;;;22.13;54.46;100657.28;5006281;27;98847;-54
2021/08/16 06:58:03;;;;;;;9.33;2.67;;;22.00;99.90;;;22.18;55.18;100663.09;5012548;27;99762;-54
2021/08/16 07:00:30;;;;;;;8.07;2.37;;;22.00;99.90;;;22.10;53.91;100652.13;5005019;28;97175;-56
2021/08/16 07:02:58;;;;;;;8.63;2.63;;;22.00;99.90;;;22.09;54.97;100661.19;5019209;27;97593;-54
2021/08/16 07:05:23;;;;;;;9.17;2.23;;;21.90;99.90;;;22.14;56.06;100658.97;5029011;27;98700;-55
2021/08/16 07:07:52;;;;;;;7.13;2.70;;;21.90;99.90;;;22.18;55.30;100646.13;4996332;27;97815;-51
2021/08/16 07:10:21;;;;;;;6.33;2.47;;;22.00;99.90;;;22.20;53.69;100653.09;5009391;27;97309;-51
2021/08/16 07:12:47;;;;;;;6.77;2.50;;;22.00;99.90;;;22.17;55.83;100658.72;5026305;27;97731;-56
2021/08/16 07:15:14;;;;;;;5.90;2.50;;;21.90;99.90;;;22.13;54.78;100657.28;5014637;27;100516;-50
2021/08/16 07:17:41;;;;;;;8.57;2.80;;;21.80;99.90;;;22.12;55.59;100655.53;5024304;27;99818;-48
2021/08/16 07:20:09;;;;;;;8.23;2.70;;;21.80;99.90;;;22.12;55.93;100655.53;5012449;27;98150;-52
2021/08/16 07:22:36;;;;;;;7.97;2.63;;;21.80;99.90;;;22.09;55.11;100655.81;5009954;27;98336;-54
2021/08/16 07:25:04;;;;;;;5.20;2.50;;;21.80;99.90;;;21.94;55.24;100657.06;5005977;27;98521;-52
2021/08/16 07:27:29;;;;;;;7.97;2.70;;;21.80;99.90;;;21.88;55.46;100647.69;5010271;27;98379;-55
2021/08/16 07:29:55;;;;;;;7.03;2.50;;;21.70;99.90;;;21.98;56.35;100661.19;4995875;27;97507;-55
2021/08/16 07:32:21;;;;;;;5.33;2.07;;;21.80;99.90;;;21.90;54.81;100650.25;5011262;27;99579;-53
2021/08/16 07:34:47;;;;;;;5.77;2.60;;;21.70;99.90;;;21.94;55.29;100635.56;5006225;27;106623;-52
2021/08/16 07:37:14;;;;;;;10.67;2.90;;;21.70;99.90;;;22.04;55.64;100641.88;5008287;27;97156;-52
2021/08/16 07:39:40;;;;;;;6.97;2.67;;;21.80;99.90;;;22.08;54.94;100643.38;5005008;27;98929;-54
2021/08/16 07:42:06;;;;;;;6.93;2.27;;;21.90;99.90;;;22.13;55.08;100634.91;5006474;28;97132;-50
2021/08/16 07:44:33;;;;;;;5.30;2.03;;;21.90;99.90;;;22.16;54.83;100635.53;5003774;27;97442;-52
2021/08/16 07:47:00;;;;;;;6.97;2.40;;;21.90;99.90;;;22.10;54.28;100636.03;5014179;27;97272;-54
2021/08/16 07:49:30;;;;;;;10.87;2.97;;;21.90;99.90;;;22.20;55.68;100645.03;5007620;27;105042;-54
2021/08/16 07:51:56;;;;;;;5.43;2.60;;;22.00;99.90;;;22.17;55.14;100647.97;5021766;27;97627;-55
2021/08/16 07:54:22;;;;;;;6.93;2.70;;;22.00;99.90;;;22.23;54.08;100660.88;5010012;27;100422;-54
2021/08/16 07:56:50;;;;;;;7.03;2.30;;;22.00;99.90;;;22.20;54.47;100661.13;5006451;27;97292;-53
2021/08/16 07:59:17;;;;;;;10.20;2.53;;;22.00;99.90;;;22.08;53.86;100664.84;5011649;27;96861;-58
2021/08/16 08:01:44;;;;;;;4.47;2.13;;;21.90;99.90;;;22.09;54.23;100655.81;5008232;27;97452;-53
2021/08/16 08:04:09;;;;;;;6.97;2.27;;;21.90;99.90;;;21.97;54.68;100662.16;5007118;27;98648;-53
2021/08/16 08:06:35;;;;;;;6.23;2.07;;;21.80;99.90;;;22.08;56.18;100654.09;5008252;27;102873;-56
2021/08/16 08:09:01;;;;;;;3.40;1.80;;;21.90;99.90;;;22.12;54.20;100671.66;5009829;27;99832;-55
2021/08/16 08:11:27;;;;;;;4.53;2.07;;;22.00;99.90;;;22.17;55.49;100673.97;5007257;27;96983;-56
2021/08/16 08:13:53;;;;;;;6.87;2.50;;;22.00;99.90;;;22.11;54.43;100669.97;5018776;27;99469;-54
2021/08/16 08:16:19;;;;;;;4.07;1.60;;;22.00;99.90;;;22.18;55.67;100663.09;5005385;28;97591;-51
2021/08/16 08:18:45;;;;;;;7.83;2.40;;;22.00;99.90;;;22.25;55.87;100671.50;5005974;27;97040;-50
2021/08/16 08:21:10;;;;;;;7.97;2.20;;;22.10;99.90;;;22.29;55.38;100672.09;5007693;27;99531;-55
2021/08/16 08:23:36;;;;;;;5.80;2.10;;;22.10;99.90;;;22.35;54.36;100676.94;4998873;27;102586;-56
2021/08/16 08:26:02;;;;;;;5.90;2.20;;;22.20;99.90;;;22.29;54.77;100662.22;5005516;27;98980;-51
2021/08/16 08:28:28;;;;;;;4.33;2.03;;;22.10;99.90;;;22.30;54.66;100680.03;5004700;27;97640;-49
2021/08/16 08:30:54;;;;;;;6.67;2.73;;;22.10;99.90;;;22.41;54.82;100676.41;5003368;27;97609;-52
2021/08/16 08:33:20;;;;;;;6.83;2.90;;;22.20;99.90;;;22.44;54.10;100681.56;5009062;27;98805;-53
2021/08/16 08:35:50;;;;;;;6.50;2.47;;;22.30;99.90;;;22.36;55.10;100678.66;5003972;27;97163;-52
2021/08/16 08:38:16;;;;;;;5.10;2.27;;;22.20;99.90;;;22.23;54.33;100668.09;5005253;27;97022;-53
2021/08/16 08:40:44;;;;;;;6.50;2.40;;;22.10;99.90;;;22.33;55.62;100674.41;5006687;27;97589;-49
2021/08/16 08:43:12;;;;;;;9.43;2.60;;;22.20;99.90;;;22.26;54.72;100679.41;5008187;27;100255;-52
2021/08/16 08:45:40;;;;;;;6.03;2.73;;;22.20;99.90;;;22.24;55.17;100676.00;5006802;27;101363;-52
2021/08/16 08:48:06;;;;;;;6.03;2.50;;;22.10;99.90;;;22.26;55.13;100673.19;5010384;27;99037;-50
2021/08/16 08:50:32;;;;;;;10.17;2.43;;;22.10;99.90;;;22.24;54.93;100676.00;5024142;27;97317;-56
2021/08/16 08:53:01;;;;;;;7.33;2.87;;;22.10;99.90;;;22.31;55.68;100675.50;5006610;27;103484;-53
2021/08/16 08:55:28;;;;;;;8.17;2.77;;;22.10;99.90;;;22.32;55.53;100672.69;5013189;27;97995;-55
2021/08/16 08:57:53;;;;;;;5.97;2.50;;;22.20;99.90;;;22.38;55.38;100682.06;4993432;27;97798;-51
2021/08/16 09:00:19;;;;;;;6.57;2.80;;;22.20;99.90;;;22.37;55.00;100674.97;5026882;27;97239;-51
2021/08/16 09:02:59;;;;;;;5.20;2.67;;;22.20;99.90;;;22.42;54.38;100688.88;5022458;27;98873;-55
2021/08/16 09:05:27;;;;;;;3.63;2.53;;;22.20;99.90;;;22.45;55.31;100678.72;5011006;27;97190;-55
2021/08/16 09:07:55;;;;;;;7.83;3.27;;;22.30;99.90;;;22.51;55.44;100677.34;5014121;27;97338;-51
2021/08/16 09:10:22;;;;;;;7.17;2.57;;;22.30;99.90;;;22.55;55.28;100686.84;5010361;27;97374;-55
2021/08/16 09:12:48;;;;;;;5.63;2.60;;;22.40;99.90;;;22.62;55.06;100681.81;5025782;27;99890;-48
2021/08/16 09:15:22;;;;;;;5.10;2.50;;;22.50;99.90;;;22.69;54.19;100675.75;5010996;27;98126;-52
2021/08/16 09:17:52;;;;;;;4.33;2.10;;;22.50;99.90;;;22.64;54.08;100672.63;5024861;27;98775;-51
2021/08/16 09:20:27;;;;;;;7.43;2.47;;;22.50;99.90;;;22.64;54.04;100667.25;5013208;27;97203;-52
2021/08/16 09:23:01;;;;;;;5.37;2.60;;;22.50;99.90;;;22.49;53.37;100682.00;5015061;27;97748;-56
2021/08/16 09:25:35;;;;;;;4.30;1.90;;;22.40;99.90;;;22.49;53.20;100672.09;5015623;27;98353;-53
2021/08/16 09:28:01;;;;;;;4.60;2.13;;;22.40;99.90;;;22.55;53.49;100685.00;5007484;27;97995;-55
2021/08/16 09:30:39;;;;;;;4.83;1.97;;;22.50;99.90;;;22.46;52.92;100684.97;5016282;27;100464;-51
2021/08/16 09:33:20;;;;;;;4.33;2.03;;;22.40;99.90;;;22.40;54.09;100674.72;5009545;27;101705;-57
2021/08/16 09:35:58;;;;;;;5.63;2.47;;;22.30;99.90;;;22.35;53.39;100672.44;5001556;27;99619;-55
2021/08/16 09:38:39;;;;;;;3.70;2.03;;;22.30;99.90;;;22.31;55.35;100672.81;5024927;27;97216;-56
2021/08/16 09:41:19;;;;;;;4.80;2.07;;;22.20;99.90;;;22.36;53.80;100667.91;5012543;27;97170;-55
2021/08/16 09:43:45;;;;;;;5.77;2.20;;;22.30;99.90;;;22.23;54.56;100679.69;5004840;27;97840;-53
2021/08/16 09:46:13;;;;;;;6.23;2.00;;;22.20;99.90;;;22.32;53.24;100677.22;5010425;27;99014;-52
2021/08/16 09:48:39;;;;;;;4.40;2.67;;;22.20;99.90;;;22.24;54.26;100681.38;5002371;27;97261;-55
2021/08/16 09:51:05;;;;;;;5.27;2.17;;;22.20;99.90;;;22.33;53.89;100678.91;5028079;27;97448;-53
2021/08/16 09:53:32;;;;;;;6.20;2.10;;;22.20;99.90;;;22.38;55.08;100674.00;5011008;27;97532;-55
2021/08/16 09:56:02;;;;;;;6.23;2.30;;;22.20;99.90;;;22.32;54.25;100672.69;5013201;27;102655;-52
2021/08/16 09:58:29;;;;;;;4.30;2.23;;;22.20;99.90;;;22.41;54.22;100682.63;5028084;27;99251;-50
2021/08/16 10:00:56;;;;;;;5.47;2.40;;;22.30;99.90;;;22.31;53.47;100680.88;5022477;27;97674;-55
2021/08/16 10:03:22;;;;;;;3.13;1.77;;;22.20;99.90;;;22.37;54.18;100674.97;5007460;27;100773;-52
2021/08/16 10:05:50;;;;;;;4.53;2.27;;;22.30;99.90;;;22.46;54.54;100679.59;5007675;28;99773;-53
2021/08/16 10:08:25;;;;;;;4.30;2.00;;;22.30;99.90;;;22.53;54.21;100675.38;5011762;27;97402;-52